Monitor, WA

6:29 PM PDT on August 02, 2015 (GMT -0700)
APRSWXNET | | Change Station
CLOSE
Current Station
Personal Weather Station
Location: Wenatchee, WA
Elevation: 961 ft
Nearby Weather Stations

Elev 961 ft 47.45 °N, 120.35 °W | Updated 31 minutes ago

Partly Cloudy
Partly Cloudy
97 °F
Feels Like 93 °F
N
7
Wind Variable Wind from NW
Gusts 12.0 mph

Today
High -- | Low -- °F
--% Chance of Precip.
Yesterday
High -- | Low -- °F
Precip. -- in
5:40 AM 8:34 PM
Waning Gibbous, 90% visible
Pressure 29.73 in
Visibility 5.0 miles
Clouds Clear
Heat Index 93 °F
Dew Point 43 °F
Humidity 16%
Rainfall in
Snow Depth Not available.
UV 2 out of 12
Pollen 5.80 out of 12
Air Quality Not available.
Flu Activity Not available.
METAR KEAT 030055Z AUTO 06004KT 5SM HZ CLR 34/06 A2976 RMK AO2 SLP065 T03440056

More Conditions Fewer Conditions

Pressure 29.73 in
Visibility 5.0 miles
Clouds Clear
Heat Index 93 °F
Dew Point 43 °F
Humidity 16%
Rainfall in
Snow Depth Not available.
UV 2 out of 12
Pollen 5.80 out of 12
Air Quality Not available.
Flu Activity Not available.
METAR KEAT 030055Z AUTO 06004KT 5SM HZ CLR 34/06 A2976 RMK AO2 SLP065 T03440056

More Conditions Fewer Conditions

10-Day Weather Forecast

×

Almanac

Astronomy

Aug. 02, 2015 Rise Set
Actual Time
Civil Twilight
Nautical Twilight
Astronomical Twilight
Moon
Length of Visible Light
Length of Day
Tomorrow will be .
, % of the Moon is Illuminated

Today's Extremes

State Highs State Lows

Community

WunderPhotos

Upload Photos

1,843,501 photos uploaded!

WunderBlogs® & News

Nearby

Air Quality

  Air Quality AQ Index Pollutant
Not available.

Snow Depth

Station Depth Elevation

Earthquake Activity

City Distance Mag. Time & Date
Minimum magnitude displayed is 2.5.

Coastal Water Temperatures

Place Temperature

Stations

Nearby Weather Stations

Station Location Temp. Windchill Dew Point Humidity Wind Precip. Elev Updated Type